Time;durP1;ratioP1;P1;durP2;ratioP2;P2;SDS_P1;SDS_P2;PMS_P1;PMS_P2;Temp;Humidity;BMP_temperature;BMP_pressure;BME280_temperature;BME280_humidity;BME280_pressure;Samples;Min_cycle;Max_cycle;Signal;HPM_P1;HPM_P2
2021/12/14 00:00:39;;;;;;;14.52;8.07;;;;;;;;;;5064061;28;20026;-50
2021/12/14 00:03:07;;;;;;;16.35;9.02;;;;;;;;;;5064196;28;20028;-52
2021/12/14 00:05:35;;;;;;;17.65;9.63;;;;;;;;;;5062671;28;20017;-52
2021/12/14 00:08:04;;;;;;;17.40;9.82;;;;;;;;;;5064044;28;20530;-52
2021/12/14 00:13:52;;;;;;;17.98;9.45;;;;;;;;;;5063588;28;20407;-50
2021/12/14 00:15:54;;;;;;;17.48;9.70;;;;;;;;;;5060225;28;20037;-52
2021/12/14 00:18:21;;;;;;;19.15;10.15;;;;;;;;;;5063657;28;20515;-49
2021/12/14 00:20:50;;;;;;;17.30;8.93;;;;;;;;;;5063023;28;20601;-53
2021/12/14 00:25:47;;;;;;;13.60;7.85;;;;;;;;;;5063818;28;20104;-52
2021/12/14 00:28:17;;;;;;;17.08;8.65;;;;;;;;;;5063390;28;20028;-52
2021/12/14 00:30:44;;;;;;;15.43;8.25;;;;;;;;;;5064087;28;20020;-53
2021/12/14 00:33:13;;;;;;;14.30;8.10;;;;;;;;;;5045449;28;20028;-52
2021/12/14 00:35:41;;;;;;;13.90;8.15;;;;;;;;;;5044533;28;20040;-53
2021/12/14 00:38:08;;;;;;;15.00;8.32;;;;;;;;;;5063190;28;20037;-51
2021/12/14 00:40:41;;;;;;;14.32;7.53;;;;;;;;;;5045888;28;20033;-53
2021/12/14 00:43:07;;;;;;;14.45;8.00;;;;;;;;;;5062904;28;20515;-52
2021/12/14 00:45:35;;;;;;;14.15;7.72;;;;;;;;;;5064271;28;20051;-52
2021/12/14 00:48:01;;;;;;;13.63;7.57;;;;;;;;;;5063674;28;20032;-53
2021/12/14 00:50:28;;;;;;;15.88;8.48;;;;;;;;;;5065685;28;20736;-53
2021/12/14 00:52:55;;;;;;;13.05;7.20;;;;;;;;;;5065912;28;20028;-54
2021/12/14 00:55:24;;;;;;;14.07;7.90;;;;;;;;;;5069131;28;20028;-53
2021/12/14 00:57:51;;;;;;;12.88;7.03;;;;;;;;;;5069555;28;20032;-53
2021/12/14 01:00:19;;;;;;;11.57;6.93;;;;;;;;;;5067405;28;20032;-53
2021/12/14 01:02:46;;;;;;;14.50;7.50;;;;;;;;;;5069518;28;20059;-54
2021/12/14 01:05:17;;;;;;;13.52;7.65;;;;;;;;;;5068718;28;20128;-53
2021/12/14 01:07:44;;;;;;;12.35;6.80;;;;;;;;;;5069332;28;20099;-53
2021/12/14 01:10:16;;;;;;;11.98;6.90;;;;;;;;;;5068991;28;20031;-49
2021/12/14 01:12:50;;;;;;;11.52;6.80;;;;;;;;;;5069169;28;20039;-53
2021/12/14 01:15:27;;;;;;;13.10;7.32;;;;;;;;;;5066481;28;20115;-53
2021/12/14 01:18:29;;;;;;;10.57;6.40;;;;;;;;;;5068018;28;20040;-53
2021/12/14 01:21:00;;;;;;;11.55;6.53;;;;;;;;;;5068855;28;20507;-52
2021/12/14 01:23:31;;;;;;;13.02;7.32;;;;;;;;;;5067393;28;20150;-52
2021/12/14 01:26:00;;;;;;;10.23;6.15;;;;;;;;;;5049036;28;20035;-54
2021/12/14 01:28:27;;;;;;;11.18;6.50;;;;;;;;;;5048842;28;20044;-52
2021/12/14 01:31:14;;;;;;;11.88;6.53;;;;;;;;;;5049062;28;20021;-52
2021/12/14 01:33:42;;;;;;;12.25;6.53;;;;;;;;;;5048603;28;20515;-53
2021/12/14 01:36:24;;;;;;;12.88;6.70;;;;;;;;;;5067691;28;20496;-52
2021/12/14 01:39:10;;;;;;;10.40;6.28;;;;;;;;;;5068858;28;20043;-53
2021/12/14 01:41:37;;;;;;;9.35;5.82;;;;;;;;;;5069417;28;20025;-52
2021/12/14 01:44:03;;;;;;;11.15;6.35;;;;;;;;;;5066912;28;20491;-52
2021/12/14 01:46:32;;;;;;;10.27;5.22;;;;;;;;;;5068505;28;20166;-53
2021/12/14 01:49:04;;;;;;;10.60;6.13;;;;;;;;;;5068514;28;20031;-54
2021/12/14 01:51:31;;;;;;;12.18;6.32;;;;;;;;;;5067285;28;20035;-53
2021/12/14 01:53:58;;;;;;;11.25;6.03;;;;;;;;;;5067042;28;20106;-54
2021/12/14 01:56:26;;;;;;;9.77;5.72;;;;;;;;;;5068437;28;20067;-53
2021/12/14 01:58:55;;;;;;;12.07;6.68;;;;;;;;;;5068413;28;20062;-54
2021/12/14 02:01:24;;;;;;;12.35;6.30;;;;;;;;;;5068049;28;20099;-53
2021/12/14 02:03:58;;;;;;;13.95;7.22;;;;;;;;;;5067015;28;20090;-54
2021/12/14 02:06:29;;;;;;;13.65;6.78;;;;;;;;;;5054182;28;20028;-53
2021/12/14 02:09:01;;;;;;;11.82;6.53;;;;;;;;;;5068214;28;20103;-52
2021/12/14 02:11:31;;;;;;;11.68;6.28;;;;;;;;;;5067902;28;20522;-52
2021/12/14 02:13:57;;;;;;;11.50;6.32;;;;;;;;;;5066588;28;20032;-52
2021/12/14 02:16:24;;;;;;;12.65;6.75;;;;;;;;;;5067148;28;20024;-53
2021/12/14 02:18:52;;;;;;;12.07;6.15;;;;;;;;;;5066245;28;20033;-53
2021/12/14 02:21:18;;;;;;;14.15;7.13;;;;;;;;;;5067674;28;20059;-53
2021/12/14 02:23:47;;;;;;;13.38;7.35;;;;;;;;;;5067670;28;20145;-53
2021/12/14 02:26:15;;;;;;;14.43;7.90;;;;;;;;;;5065300;28;20132;-52
2021/12/14 02:28:41;;;;;;;11.50;6.85;;;;;;;;;;5067646;28;20393;-53
2021/12/14 02:31:09;;;;;;;13.45;7.50;;;;;;;;;;5067982;28;20021;-53
2021/12/14 02:33:37;;;;;;;15.93;8.48;;;;;;;;;;5067175;28;20040;-49
2021/12/14 02:36:05;;;;;;;16.88;9.52;;;;;;;;;;5067216;28;20067;-53
2021/12/14 02:38:31;;;;;;;17.45;9.75;;;;;;;;;;5065404;28;20059;-52
2021/12/14 02:41:01;;;;;;;16.55;9.40;;;;;;;;;;5067385;28;20094;-52
2021/12/14 02:43:47;;;;;;;15.60;8.63;;;;;;;;;;5066813;28;20028;-52
2021/12/14 02:46:15;;;;;;;16.65;8.98;;;;;;;;;;5066341;28;20408;-52
2021/12/14 02:48:42;;;;;;;14.55;8.32;;;;;;;;;;5067132;28;20036;-52
2021/12/14 02:51:10;;;;;;;11.63;6.88;;;;;;;;;;5066960;28;20059;-53
2021/12/14 02:53:37;;;;;;;14.88;7.88;;;;;;;;;;5067675;28;20116;-53
2021/12/14 02:56:07;;;;;;;12.98;7.03;;;;;;;;;;5066911;28;20105;-52
2021/12/14 02:58:34;;;;;;;13.60;7.70;;;;;;;;;;5067783;28;20032;-51
2021/12/14 03:01:01;;;;;;;13.95;7.88;;;;;;;;;;5067129;28;20480;-52
2021/12/14 03:03:27;;;;;;;14.27;7.68;;;;;;;;;;5066486;28;20032;-53
2021/12/14 03:05:54;;;;;;;13.13;7.68;;;;;;;;;;5065643;28;20111;-53
2021/12/14 03:08:21;;;;;;;13.82;7.32;;;;;;;;;;5065949;28;20078;-50
2021/12/14 03:10:57;;;;;;;11.10;6.13;;;;;;;;;;5066486;28;20388;-52
2021/12/14 03:13:29;;;;;;;13.40;7.18;;;;;;;;;;5066633;28;20028;-51
2021/12/14 03:15:57;;;;;;;11.52;6.55;;;;;;;;;;5064978;28;20398;-53
2021/12/14 03:18:26;;;;;;;12.02;6.63;;;;;;;;;;5066531;28;20098;-50
2021/12/14 03:20:56;;;;;;;13.05;7.07;;;;;;;;;;5065001;28;20360;-52
2021/12/14 03:23:30;;;;;;;11.32;6.40;;;;;;;;;;5066163;28;20040;-54
2021/12/14 03:25:56;;;;;;;;;;;;;;;;;;5047322;28;20025;-52
2021/12/14 03:28:23;;;;;;;12.77;6.25;;;;;;;;;;5046369;28;20390;-52
2021/12/14 03:30:55;;;;;;;11.48;6.28;;;;;;;;;;5057143;28;20041;-53
2021/12/14 03:33:23;;;;;;;12.88;6.68;;;;;;;;;;5066024;28;20132;-50
2021/12/14 03:35:56;;;;;;;12.43;6.63;;;;;;;;;;5065746;28;20056;-53
2021/12/14 03:38:27;;;;;;;12.63;7.38;;;;;;;;;;5060593;28;20468;-49
2021/12/14 03:41:06;;;;;;;12.55;6.93;;;;;;;;;;5065486;28;20067;-52
2021/12/14 03:43:33;;;;;;;12.55;6.82;;;;;;;;;;5066313;28;20397;-53
2021/12/14 03:45:59;;;;;;;12.95;6.75;;;;;;;;;;5066383;28;20407;-52
2021/12/14 03:48:28;;;;;;;11.82;6.60;;;;;;;;;;5064214;28;20032;-52
2021/12/14 03:50:54;;;;;;;12.65;6.78;;;;;;;;;;5066529;28;20056;-49
2021/12/14 03:53:22;;;;;;;12.25;7.00;;;;;;;;;;5066042;28;20059;-52
2021/12/14 03:55:50;;;;;;;11.93;6.32;;;;;;;;;;5066319;28;20115;-53
2021/12/14 03:58:22;;;;;;;15.52;7.55;;;;;;;;;;5063748;28;20479;-52
2021/12/14 04:00:50;;;;;;;13.90;7.20;;;;;;;;;;5066286;28;20028;-52
2021/12/14 04:03:17;;;;;;;15.23;7.20;;;;;;;;;;5065847;28;20067;-53
2021/12/14 04:05:44;;;;;;;14.68;7.53;;;;;;;;;;5066310;28;20060;-52
2021/12/14 04:08:11;;;;;;;13.75;7.07;;;;;;;;;;5063854;28;20566;-52
2021/12/14 04:10:38;;;;;;;15.23;7.85;;;;;;;;;;5065625;28;20400;-54
2021/12/14 04:13:04;;;;;;;13.57;6.90;;;;;;;;;;5066732;28;20865;-53
2021/12/14 04:15:30;;;;;;;15.82;8.13;;;;;;;;;;5065054;28;20043;-53
2021/12/14 04:17:57;;;;;;;14.25;7.55;;;;;;;;;;5064522;28;20047;-53
2021/12/14 04:20:25;;;;;;;14.38;7.63;;;;;;;;;;5064829;28;20108;-53
2021/12/14 04:22:52;;;;;;;14.05;7.38;;;;;;;;;;5069111;28;20044;-52
2021/12/14 04:25:20;;;;;;;13.80;7.38;;;;;;;;;;5070187;28;20024;-49
2021/12/14 04:27:46;;;;;;;14.00;7.30;;;;;;;;;;5069929;28;20089;-52
2021/12/14 04:30:14;;;;;;;13.27;7.53;;;;;;;;;;5070025;28;20059;-52
2021/12/14 04:32:40;;;;;;;14.65;7.47;;;;;;;;;;5068453;28;20033;-53
2021/12/14 04:35:07;;;;;;;14.65;7.13;;;;;;;;;;5070451;28;20417;-51
2021/12/14 04:37:42;;;;;;;13.85;7.25;;;;;;;;;;5070239;28;20028;-54
2021/12/14 04:53:47;;;;;;;13.10;7.00;;;;;;;;;;5069336;28;20600;-52
2021/12/14 04:56:19;;;;;;;12.68;6.43;;;;;;;;;;5069410;28;20055;-53
2021/12/14 04:58:49;;;;;;;12.32;6.45;;;;;;;;;;5069392;28;20566;-53
2021/12/14 05:01:16;;;;;;;13.88;7.00;;;;;;;;;;5068140;28;20032;-52
2021/12/14 05:03:50;;;;;;;11.35;6.20;;;;;;;;;;5068791;28;20029;-51
2021/12/14 05:06:19;;;;;;;12.07;7.30;;;;;;;;;;5069328;28;20020;-52
2021/12/14 05:11:17;;;;;;;13.20;7.15;;;;;;;;;;5067434;28;20082;-52
2021/12/14 05:13:45;;;;;;;12.20;6.80;;;;;;;;;;5067874;28;20487;-51
2021/12/14 05:16:22;;;;;;;13.35;6.95;;;;;;;;;;5050634;28;20419;-49
2021/12/14 05:18:49;;;;;;;13.48;6.47;;;;;;;;;;5069055;28;20021;-52
2021/12/14 05:21:35;;;;;;;12.18;6.47;;;;;;;;;;5067710;28;20036;-53
2021/12/14 05:24:03;;;;;;;12.23;6.72;;;;;;;;;;5068362;28;20044;-52
2021/12/14 05:26:29;;;;;;;11.85;6.47;;;;;;;;;;5068931;28;20043;-52
2021/12/14 05:28:55;;;;;;;12.68;6.88;;;;;;;;;;5068989;28;20028;-49
2021/12/14 05:31:22;;;;;;;14.63;7.20;;;;;;;;;;5067341;28;20123;-53
2021/12/14 05:33:48;;;;;;;12.82;6.47;;;;;;;;;;5067885;28;20035;-52
2021/12/14 05:36:16;;;;;;;12.43;6.63;;;;;;;;;;5067637;28;20032;-52
2021/12/14 05:38:58;;;;;;;11.60;6.20;;;;;;;;;;5066299;28;20024;-53
2021/12/14 05:44:20;;;;;;;12.85;7.03;;;;;;;;;;5068553;28;20067;-53
2021/12/14 05:46:50;;;;;;;13.05;6.82;;;;;;;;;;5068164;28;20025;-52
2021/12/14 05:49:21;;;;;;;15.60;7.65;;;;;;;;;;5067194;28;20103;-53
2021/12/14 05:51:48;;;;;;;14.70;7.05;;;;;;;;;;5068161;28;20024;-53
2021/12/14 05:54:32;;;;;;;13.35;6.70;;;;;;;;;;5068344;28;20024;-53
2021/12/14 05:56:58;;;;;;;;;;;;;;;;;;5068937;28;20053;-51
2021/12/14 05:59:27;;;;;;;14.70;7.53;;;;;;;;;;5065318;28;19982;-53
2021/12/14 06:01:54;;;;;;;14.60;7.22;;;;;;;;;;5067983;28;20029;-52
2021/12/14 06:04:20;;;;;;;14.18;6.63;;;;;;;;;;5067922;28;20028;-52
2021/12/14 06:06:52;;;;;;;13.82;6.63;;;;;;;;;;5067741;28;20036;-52
2021/12/14 06:09:18;;;;;;;12.18;6.65;;;;;;;;;;5064612;28;20017;-49
2021/12/14 06:11:46;;;;;;;10.07;6.25;;;;;;;;;;5068033;28;21117;-51
2021/12/14 06:14:22;;;;;;;13.52;6.95;;;;;;;;;;5067551;28;20020;-49
2021/12/14 06:16:49;;;;;;;12.35;6.15;;;;;;;;;;5067454;28;20086;-51
2021/12/14 06:19:21;;;;;;;13.45;7.15;;;;;;;;;;5066449;28;20499;-52
2021/12/14 06:21:49;;;;;;;11.73;6.65;;;;;;;;;;5067741;28;20029;-51
2021/12/14 06:24:15;;;;;;;13.23;6.70;;;;;;;;;;5067217;28;20025;-51
2021/12/14 06:26:54;;;;;;;13.48;7.25;;;;;;;;;;5067683;28;20051;-52
2021/12/14 06:29:29;;;;;;;12.73;6.85;;;;;;;;;;5066059;28;20033;-52
2021/12/14 06:31:55;;;;;;;14.27;6.95;;;;;;;;;;5066476;28;20107;-49
2021/12/14 06:34:23;;;;;;;13.45;6.90;;;;;;;;;;5067312;28;20587;-48
2021/12/14 06:37:02;;;;;;;14.07;7.38;;;;;;;;;;5066166;28;20036;-51
2021/12/14 06:39:28;;;;;;;15.63;7.57;;;;;;;;;;5065123;28;20024;-51
2021/12/14 06:42:04;;;;;;;17.63;9.65;;;;;;;;;;5064917;28;20031;-48
2021/12/14 06:44:30;;;;;;;32.30;14.73;;;;;;;;;;5063865;28;20027;-49
2021/12/14 06:46:56;;;;;;;31.98;15.05;;;;;;;;;;5067791;28;20040;-48
2021/12/14 06:49:22;;;;;;;26.60;11.65;;;;;;;;;;5066809;28;20586;-48
2021/12/14 06:51:49;;;;;;;21.38;10.80;;;;;;;;;;5066938;28;20032;-52
2021/12/14 06:54:23;;;;;;;20.30;9.50;;;;;;;;;;5049024;28;20052;-52
2021/12/14 06:56:56;;;;;;;21.00;9.82;;;;;;;;;;5065849;28;20453;-52
2021/12/14 06:59:23;;;;;;;19.40;9.05;;;;;;;;;;5066758;28;20025;-51
2021/12/14 07:01:54;;;;;;;18.40;8.50;;;;;;;;;;5065498;28;20075;-50
2021/12/14 07:04:22;;;;;;;15.68;7.97;;;;;;;;;;5055801;28;20031;-51
2021/12/14 07:06:59;;;;;;;19.25;9.15;;;;;;;;;;5079373;28;20028;-51
2021/12/14 07:09:27;;;;;;;17.33;8.98;;;;;;;;;;5064521;28;20104;-53
2021/12/14 07:12:05;;;;;;;15.10;7.78;;;;;;;;;;5066927;28;20033;-50
2021/12/14 07:14:32;;;;;;;15.40;7.85;;;;;;;;;;5065845;28;20096;-51
2021/12/14 07:17:01;;;;;;;14.48;7.32;;;;;;;;;;5066665;28;20073;-50
2021/12/14 07:19:40;;;;;;;14.48;7.25;;;;;;;;;;5065160;28;20028;-52
2021/12/14 07:22:06;;;;;;;14.40;7.53;;;;;;;;;;5063453;28;20029;-49
2021/12/14 07:24:34;;;;;;;13.40;6.95;;;;;;;;;;5062916;28;20021;-53
2021/12/14 07:27:15;;;;;;;14.20;7.05;;;;;;;;;;5065317;28;20060;-49
2021/12/14 07:29:42;;;;;;;14.93;7.55;;;;;;;;;;5065986;28;20029;-49
2021/12/14 07:32:08;;;;;;;15.80;7.38;;;;;;;;;;5066250;28;20036;-53
2021/12/14 07:34:34;;;;;;;17.00;7.78;;;;;;;;;;5062497;28;20067;-51
2021/12/14 07:37:00;;;;;;;14.65;7.00;;;;;;;;;;5058293;28;20391;-51
2021/12/14 07:39:26;;;;;;;15.35;7.65;;;;;;;;;;5060035;28;20032;-51
2021/12/14 07:41:55;;;;;;;13.43;6.70;;;;;;;;;;5062506;28;20056;-52
2021/12/14 07:44:25;;;;;;;14.50;7.35;;;;;;;;;;5067996;28;20056;-48
2021/12/14 07:46:54;;;;;;;12.98;6.57;;;;;;;;;;5086277;28;20040;-50
2021/12/14 07:49:26;;;;;;;13.57;6.80;;;;;;;;;;5070996;28;20056;-51
2021/12/14 07:51:59;;;;;;;17.17;8.07;;;;;;;;;;5063602;28;20028;-51
2021/12/14 07:54:31;;;;;;;12.73;6.63;;;;;;;;;;5066382;28;20039;-51
2021/12/14 07:57:04;;;;;;;12.73;6.20;;;;;;;;;;5066739;28;20034;-51
2021/12/14 07:59:36;;;;;;;11.02;6.15;;;;;;;;;;5060699;28;20103;-51
2021/12/14 08:02:08;;;;;;;14.30;7.07;;;;;;;;;;5061188;28;20068;-51
2021/12/14 08:04:35;;;;;;;16.30;7.68;;;;;;;;;;5086120;28;20052;-51
2021/12/14 08:07:01;;;;;;;12.77;6.70;;;;;;;;;;5076267;28;20059;-51
2021/12/14 08:09:33;;;;;;;14.13;7.00;;;;;;;;;;5066339;28;20067;-50
2021/12/14 08:12:00;;;;;;;14.98;7.53;;;;;;;;;;5046657;28;20484;-51
2021/12/14 08:14:28;;;;;;;12.10;6.03;;;;;;;;;;5046293;28;20036;-52
2021/12/14 08:16:56;;;;;;;14.57;7.50;;;;;;;;;;5061073;28;20029;-51
2021/12/14 08:19:42;;;;;;;15.68;7.07;;;;;;;;;;5066830;28;20438;-51
2021/12/14 08:22:08;;;;;;;13.50;6.72;;;;;;;;;;5066960;28;20414;-52
2021/12/14 08:24:35;;;;;;;11.65;6.35;;;;;;;;;;5066523;28;20024;-51
2021/12/14 08:27:02;;;;;;;14.15;6.88;;;;;;;;;;5066643;28;20409;-51
2021/12/14 08:29:30;;;;;;;13.48;6.28;;;;;;;;;;5066197;28;20507;-49
2021/12/14 08:32:05;;;;;;;11.70;6.10;;;;;;;;;;5059427;28;20597;-51
2021/12/14 08:34:32;;;;;;;13.35;6.80;;;;;;;;;;5046450;28;20065;-51
2021/12/14 08:37:25;;;;;;;13.40;6.45;;;;;;;;;;5046488;28;20031;-51
2021/12/14 08:39:55;;;;;;;13.13;5.78;;;;;;;;;;5042232;28;20060;-51
2021/12/14 08:42:23;;;;;;;12.48;6.03;;;;;;;;;;5050321;28;20055;-51
2021/12/14 08:44:55;;;;;;;13.93;7.13;;;;;;;;;;5065072;28;20502;-50
2021/12/14 08:47:40;;;;;;;14.38;7.00;;;;;;;;;;5065308;28;20112;-50
2021/12/14 08:50:09;;;;;;;13.77;6.88;;;;;;;;;;5066019;28;20275;-49
2021/12/14 08:52:36;;;;;;;13.55;6.85;;;;;;;;;;5065609;28;20024;-50
2021/12/14 08:55:03;;;;;;;14.98;7.28;;;;;;;;;;5056802;28;20056;-51
2021/12/14 08:57:30;;;;;;;14.93;7.28;;;;;;;;;;5048203;28;20024;-49
2021/12/14 08:59:58;;;;;;;15.65;7.53;;;;;;;;;;5064215;28;20037;-50
2021/12/14 09:02:26;;;;;;;12.85;6.68;;;;;;;;;;5063158;28;20032;-53
2021/12/14 09:04:54;;;;;;;13.02;6.43;;;;;;;;;;5064518;28;20068;-51
2021/12/14 09:07:22;;;;;;;14.25;7.32;;;;;;;;;;5066105;28;20024;-52
2021/12/14 09:09:49;;;;;;;14.32;6.65;;;;;;;;;;5068384;28;20021;-51
2021/12/14 09:12:15;;;;;;;15.02;7.28;;;;;;;;;;5067529;28;20078;-52
2021/12/14 09:14:43;;;;;;;15.50;7.63;;;;;;;;;;5066399;28;20559;-51
2021/12/14 09:17:11;;;;;;;15.15;7.45;;;;;;;;;;5067433;28;20029;-50
2021/12/14 09:19:39;;;;;;;13.48;6.70;;;;;;;;;;5067807;28;20029;-51
2021/12/14 09:22:08;;;;;;;13.57;7.28;;;;;;;;;;5067819;28;20059;-51
2021/12/14 09:24:34;;;;;;;13.88;6.60;;;;;;;;;;5067640;28;20032;-51
2021/12/14 09:27:05;;;;;;;17.33;7.65;;;;;;;;;;5067255;28;20317;-50
2021/12/14 09:29:33;;;;;;;14.73;7.05;;;;;;;;;;5066799;28;20029;-50
2021/12/14 09:32:01;;;;;;;16.25;7.90;;;;;;;;;;5067111;28;20455;-49
2021/12/14 09:34:29;;;;;;;15.57;7.60;;;;;;;;;;5066947;28;20645;-50
2021/12/14 09:36:56;;;;;;;16.23;7.55;;;;;;;;;;5067077;28;20024;-53
2021/12/14 09:39:25;;;;;;;17.83;9.18;;;;;;;;;;5066882;28;20618;-52
2021/12/14 09:41:53;;;;;;;18.05;8.20;;;;;;;;;;5049141;28;20025;-52
2021/12/14 09:44:21;;;;;;;15.50;8.20;;;;;;;;;;5067728;28;20099;-52
2021/12/14 09:46:49;;;;;;;15.80;7.72;;;;;;;;;;5073927;28;20473;-51
2021/12/14 09:49:16;;;;;;;18.77;8.75;;;;;;;;;;5068478;28;20392;-49
2021/12/14 09:51:44;;;;;;;18.35;8.38;;;;;;;;;;5068558;28;20024;-51
2021/12/14 09:54:14;;;;;;;16.00;7.75;;;;;;;;;;5065708;28;20035;-52
2021/12/14 09:56:43;;;;;;;17.95;8.73;;;;;;;;;;5066163;28;20024;-51
2021/12/14 09:59:10;;;;;;;17.95;8.38;;;;;;;;;;5084705;28;20039;-52
2021/12/14 10:01:40;;;;;;;15.40;6.97;;;;;;;;;;5072496;28;20064;-53
2021/12/14 10:04:08;;;;;;;18.17;8.35;;;;;;;;;;5063899;28;20029;-49
2021/12/14 10:06:35;;;;;;;18.90;8.70;;;;;;;;;;5067683;28;20021;-51
2021/12/14 10:09:05;;;;;;;18.98;8.80;;;;;;;;;;5067093;28;20036;-51
2021/12/14 10:12:00;;;;;;;22.63;8.98;;;;;;;;;;5086864;28;20069;-52
2021/12/14 10:14:34;;;;;;;15.88;7.97;;;;;;;;;;5066891;28;20032;-51
2021/12/14 10:17:02;;;;;;;17.25;8.10;;;;;;;;;;5065209;28;20101;-53
2021/12/14 10:19:32;;;;;;;17.40;8.25;;;;;;;;;;5063721;28;20522;-51
2021/12/14 10:22:01;;;;;;;18.40;8.23;;;;;;;;;;5066883;28;20036;-49
2021/12/14 10:24:28;;;;;;;19.50;9.23;;;;;;;;;;5066529;28;20086;-51
2021/12/14 10:26:55;;;;;;;19.23;8.73;;;;;;;;;;5067304;28;20025;-52
2021/12/14 10:29:25;;;;;;;17.70;8.13;;;;;;;;;;5067084;28;20063;-51
2021/12/14 10:31:53;;;;;;;21.80;9.70;;;;;;;;;;5067399;28;20025;-52
2021/12/14 10:34:22;;;;;;;19.15;8.55;;;;;;;;;;5081043;28;20020;-50
2021/12/14 10:36:54;;;;;;;19.17;9.30;;;;;;;;;;5087534;28;20020;-55
2021/12/14 10:44:39;;;;;;;19.30;8.82;;;;;;;;;;5066943;28;20473;-52
2021/12/14 10:47:07;;;;;;;15.85;8.38;;;;;;;;;;5066616;28;20028;-52
2021/12/14 10:49:33;;;;;;;16.33;8.48;;;;;;;;;;5065715;28;20032;-51
2021/12/14 10:52:01;;;;;;;17.95;9.10;;;;;;;;;;5066511;28;20298;-52
2021/12/14 10:54:29;;;;;;;16.83;8.18;;;;;;;;;;5065896;28;20163;-52
2021/12/14 10:56:58;;;;;;;18.77;8.18;;;;;;;;;;5066762;28;20074;-52
2021/12/14 10:59:26;;;;;;;16.45;8.30;;;;;;;;;;5065916;28;20052;-52
2021/12/14 11:01:53;;;;;;;18.25;8.90;;;;;;;;;;5066248;28;20028;-50
2021/12/14 11:04:36;;;;;;;17.30;8.77;;;;;;;;;;5063875;28;20458;-50
2021/12/14 11:07:05;;;;;;;20.65;9.50;;;;;;;;;;5066272;28;20020;-52
2021/12/14 11:09:43;;;;;;;20.95;9.18;;;;;;;;;;5065706;28;20032;-52
2021/12/14 11:12:15;;;;;;;18.65;8.98;;;;;;;;;;5046094;28;20515;-53
2021/12/14 11:14:42;;;;;;;19.20;9.13;;;;;;;;;;5053646;28;20071;-51
2021/12/14 11:20:07;;;;;;;19.33;9.38;;;;;;;;;;5067645;28;20119;-53
2021/12/14 11:22:41;;;;;;;23.70;10.60;;;;;;;;;;5066136;28;20115;-52
2021/12/14 11:25:10;;;;;;;19.50;9.65;;;;;;;;;;5078777;28;20035;-53
2021/12/14 11:27:39;;;;;;;22.15;9.98;;;;;;;;;;5087589;28;20669;-51
2021/12/14 11:30:20;;;;;;;22.05;10.45;;;;;;;;;;5073301;28;20076;-52
2021/12/14 11:32:48;;;;;;;20.40;9.10;;;;;;;;;;5066884;28;20027;-53
2021/12/14 11:35:15;;;;;;;19.15;9.35;;;;;;;;;;5067187;28;20031;-52
2021/12/14 11:37:42;;;;;;;18.73;8.82;;;;;;;;;;5066809;28;20032;-51
2021/12/14 11:40:10;;;;;;;20.15;9.18;;;;;;;;;;5066528;28;20037;-51
2021/12/14 11:42:36;;;;;;;19.98;10.27;;;;;;;;;;5066971;28;20031;-51
2021/12/14 11:45:08;;;;;;;19.30;9.82;;;;;;;;;;5066265;28;20067;-52
2021/12/14 11:50:14;;;;;;;20.13;10.20;;;;;;;;;;5065868;28;20575;-52
2021/12/14 11:52:56;;;;;;;19.50;9.68;;;;;;;;;;5066104;28;20361;-54
2021/12/14 11:55:41;;;;;;;18.10;9.13;;;;;;;;;;5063828;28;20125;-51
2021/12/14 11:58:07;;;;;;;18.55;9.48;;;;;;;;;;5066719;28;20388;-52
2021/12/14 12:00:36;;;;;;;18.27;9.10;;;;;;;;;;5064532;28;20028;-52
2021/12/14 12:03:37;;;;;;;16.75;9.40;;;;;;;;;;5064445;28;20431;-52
2021/12/14 12:06:35;;;;;;;17.13;9.10;;;;;;;;;;5001935;28;20041;-52
2021/12/14 12:09:29;;;;;;;16.10;8.25;;;;;;;;;;5058130;28;20082;-51
2021/12/14 12:12:00;;;;;;;16.87;8.77;;;;;;;;;;5064439;28;20039;-52
2021/12/14 12:14:46;;;;;;;15.07;7.85;;;;;;;;;;5063231;28;20255;-52
2021/12/14 12:17:28;;;;;;;18.42;8.98;;;;;;;;;;5064220;28;20025;-51
2021/12/14 12:19:54;;;;;;;17.08;8.82;;;;;;;;;;5064425;28;20020;-51
2021/12/14 12:22:20;;;;;;;17.38;8.82;;;;;;;;;;5063883;28;20115;-52
2021/12/14 12:24:48;;;;;;;16.45;8.75;;;;;;;;;;5063952;28;20024;-52
2021/12/14 12:27:21;;;;;;;18.88;9.27;;;;;;;;;;5063845;28;20055;-52
2021/12/14 12:29:47;;;;;;;17.80;8.43;;;;;;;;;;5063930;28;20021;-52
2021/12/14 12:32:21;;;;;;;16.58;8.18;;;;;;;;;;5063524;28;20704;-53
2021/12/14 12:34:50;;;;;;;19.70;9.80;;;;;;;;;;5063859;28;20074;-53
2021/12/14 12:37:17;;;;;;;17.80;8.70;;;;;;;;;;5043963;28;20428;-52
2021/12/14 12:39:52;;;;;;;19.40;9.45;;;;;;;;;;5043931;28;20386;-50
2021/12/14 12:42:18;;;;;;;15.82;8.40;;;;;;;;;;5045055;28;20033;-52
2021/12/14 12:44:45;;;;;;;17.42;8.73;;;;;;;;;;5047811;28;20558;-52
2021/12/14 12:47:14;;;;;;;14.85;8.57;;;;;;;;;;5047878;28;20055;-51
2021/12/14 12:49:46;;;;;;;19.60;9.52;;;;;;;;;;5047824;28;20582;-53
2021/12/14 12:52:16;;;;;;;15.95;8.57;;;;;;;;;;5047732;28;20582;-53
2021/12/14 12:54:42;;;;;;;17.52;8.63;;;;;;;;;;5047623;28;20177;-53
2021/12/14 12:57:32;;;;;;;17.70;8.70;;;;;;;;;;5047717;28;20108;-54
2021/12/14 13:00:16;;;;;;;18.00;9.10;;;;;;;;;;5046685;28;20536;-53
2021/12/14 13:02:54;;;;;;;17.95;9.13;;;;;;;;;;5047542;28;20399;-53
2021/12/14 13:05:20;;;;;;;19.70;9.90;;;;;;;;;;5047915;28;20033;-51
2021/12/14 13:07:52;;;;;;;17.85;8.95;;;;;;;;;;5047339;28;20021;-52
2021/12/14 13:10:23;;;;;;;17.05;9.13;;;;;;;;;;5048080;28;20033;-52
2021/12/14 13:12:52;;;;;;;18.42;9.02;;;;;;;;;;5047925;28;20028;-53
2021/12/14 13:15:33;;;;;;;20.10;9.60;;;;;;;;;;5047371;28;20423;-51
2021/12/14 13:18:24;;;;;;;15.73;8.23;;;;;;;;;;5056931;28;20060;-52
2021/12/14 13:20:53;;;;;;;15.38;8.30;;;;;;;;;;5059755;28;20438;-53
2021/12/14 13:23:22;;;;;;;15.63;7.45;;;;;;;;;;5068902;28;20036;-52
2021/12/14 13:25:48;;;;;;;16.92;8.48;;;;;;;;;;5066835;28;20021;-52
2021/12/14 13:28:15;;;;;;;17.25;8.93;;;;;;;;;;5065842;28;20449;-52
2021/12/14 13:30:42;;;;;;;16.67;7.72;;;;;;;;;;5065505;28;20033;-52
2021/12/14 13:33:28;;;;;;;15.15;7.68;;;;;;;;;;5067400;28;20035;-50
2021/12/14 13:35:54;;;;;;;15.75;8.02;;;;;;;;;;5068995;28;20483;-53
2021/12/14 13:38:20;;;;;;;13.98;7.18;;;;;;;;;;5079456;28;20020;-51
2021/12/14 13:40:47;;;;;;;14.50;8.35;;;;;;;;;;5081289;28;20463;-50
2021/12/14 13:43:19;;;;;;;16.40;7.97;;;;;;;;;;5068060;28;20040;-52
2021/12/14 13:46:02;;;;;;;15.95;8.23;;;;;;;;;;5068215;28;20070;-52
2021/12/14 13:48:30;;;;;;;14.32;7.60;;;;;;;;;;5066772;28;20553;-51
2021/12/14 13:51:01;;;;;;;16.13;8.77;;;;;;;;;;5079910;28;20024;-53
2021/12/14 13:53:27;;;;;;;16.40;8.02;;;;;;;;;;5069316;28;20051;-52
2021/12/14 13:55:58;;;;;;;15.30;7.95;;;;;;;;;;5067128;28;20032;-52
2021/12/14 13:58:26;;;;;;;16.70;8.95;;;;;;;;;;5072804;28;20064;-51
2021/12/14 14:00:58;;;;;;;16.10;8.95;;;;;;;;;;5068847;28;20433;-51
2021/12/14 14:03:27;;;;;;;17.15;8.55;;;;;;;;;;5067707;28;20107;-53
2021/12/14 14:05:54;;;;;;;17.73;9.27;;;;;;;;;;5068355;28;20025;-53
2021/12/14 14:08:23;;;;;;;17.20;8.60;;;;;;;;;;5067479;28;20031;-52
2021/12/14 14:10:49;;;;;;;19.38;9.18;;;;;;;;;;5080419;28;20562;-56
2021/12/14 14:13:22;;;;;;;19.60;9.63;;;;;;;;;;5066922;28;20090;-55
2021/12/14 14:15:51;;;;;;;18.02;9.60;;;;;;;;;;5063776;28;20032;-52
2021/12/14 14:18:17;;;;;;;19.92;9.95;;;;;;;;;;5065865;28;20633;-51
2021/12/14 14:20:49;;;;;;;18.70;10.43;;;;;;;;;;5076137;28;21069;-52
2021/12/14 14:23:20;;;;;;;19.95;10.77;;;;;;;;;;5087639;28;20020;-51
2021/12/14 14:25:49;;;;;;;17.90;10.50;;;;;;;;;;5070294;28;20059;-52
2021/12/14 14:28:44;;;;;;;17.77;9.55;;;;;;;;;;5060247;28;20021;-52
2021/12/14 14:31:14;;;;;;;17.33;9.75;;;;;;;;;;5033716;28;20762;-51
2021/12/14 14:33:46;;;;;;;16.20;9.15;;;;;;;;;;5060618;28;20028;-50
2021/12/14 14:36:24;;;;;;;18.52;9.93;;;;;;;;;;5065009;28;20454;-53
2021/12/14 14:38:51;;;;;;;16.75;9.38;;;;;;;;;;5067338;28;20039;-52
2021/12/14 14:41:20;;;;;;;18.73;9.90;;;;;;;;;;5067237;28;20036;-53
2021/12/14 14:43:57;;;;;;;18.10;9.02;;;;;;;;;;5065652;28;20052;-54
2021/12/14 14:46:38;;;;;;;15.50;8.88;;;;;;;;;;5065587;28;20025;-53
2021/12/14 14:49:05;;;;;;;17.95;9.32;;;;;;;;;;5066108;28;20026;-53
2021/12/14 14:51:43;;;;;;;16.10;8.73;;;;;;;;;;5065841;28;20031;-53
2021/12/14 14:54:28;;;;;;;16.98;9.20;;;;;;;;;;5065093;28;20103;-49
2021/12/14 14:56:54;;;;;;;17.40;9.35;;;;;;;;;;5065139;28;20093;-53
2021/12/14 14:59:22;;;;;;;19.02;8.85;;;;;;;;;;5065579;28;20032;-53
2021/12/14 15:01:48;;;;;;;18.13;9.35;;;;;;;;;;5065040;28;20029;-54
2021/12/14 15:04:15;;;;;;;18.00;9.07;;;;;;;;;;5064228;28;20289;-52
2021/12/14 15:06:43;;;;;;;16.00;8.10;;;;;;;;;;5064021;28;20078;-52
2021/12/14 15:09:14;;;;;;;17.40;8.55;;;;;;;;;;5065657;28;20025;-52
2021/12/14 15:11:47;;;;;;;15.27;8.43;;;;;;;;;;5064483;28;20085;-52
2021/12/14 15:14:17;;;;;;;16.05;8.10;;;;;;;;;;5064311;28;20055;-53
2021/12/14 15:16:49;;;;;;;14.63;8.23;;;;;;;;;;5064684;28;20085;-54
2021/12/14 15:19:16;;;;;;;19.52;9.48;;;;;;;;;;5065009;28;20043;-53
2021/12/14 15:21:51;;;;;;;19.35;9.35;;;;;;;;;;5064627;28;20037;-50
2021/12/14 15:24:30;;;;;;;16.88;9.48;;;;;;;;;;5064626;28;20024;-52